createdAt,value
2018-05-27T00:02:09.296Z,78.06
2018-05-27T00:05:13.323Z,78.41
2018-05-27T00:08:16.753Z,78.01
2018-05-27T00:11:20.016Z,77.83
2018-05-27T00:14:24.050Z,78.45
2018-05-27T00:17:27.315Z,78.17
2018-05-27T00:20:31.466Z,77.80
2018-05-27T00:23:34.728Z,77.53
2018-05-27T00:26:37.989Z,77.54
2018-05-27T00:29:41.254Z,78.07
2018-05-27T00:32:44.532Z,77.93
2018-05-27T00:35:48.555Z,77.75
2018-05-27T00:38:51.822Z,77.94
2018-05-27T00:41:55.156Z,77.65
2018-05-27T00:44:58.413Z,77.35
2018-05-27T00:48:02.458Z,77.62
2018-05-27T00:51:06.475Z,77.64
2018-05-27T00:54:09.734Z,77.63
2018-05-27T00:57:14.539Z,77.35
2018-05-27T01:00:17.812Z,77.37
2018-05-27T01:03:21.073Z,77.33
2018-05-27T01:06:24.459Z,77.15
2018-05-27T01:09:27.798Z,77.11
2018-05-27T01:12:31.820Z,77.64
2018-05-27T01:15:35.088Z,77.85
2018-05-27T01:18:39.110Z,77.75
2018-05-27T01:21:43.139Z,77.34
2018-05-27T01:24:46.399Z,77.16
2018-05-27T01:27:49.674Z,77.46
2018-05-27T01:30:52.934Z,77.72
2018-05-27T01:33:56.190Z,77.67
2018-05-27T01:36:59.464Z,77.67
2018-05-27T01:40:02.717Z,77.22
2018-05-27T01:43:05.981Z,77.58
2018-05-27T01:46:09.241Z,77.42
2018-05-27T01:49:12.590Z,76.99
2018-05-27T01:52:15.847Z,77.29
2018-05-27T01:55:19.881Z,77.30
2018-05-27T01:58:23.155Z,77.36
2018-05-27T02:01:26.421Z,77.37
2018-05-27T02:04:29.672Z,77.16
2018-05-27T02:07:32.930Z,77.01
2018-05-27T02:10:36.193Z,77.33
2018-05-27T02:13:39.447Z,77.23
2018-05-27T02:16:43.902Z,77.06
2018-05-27T02:19:47.158Z,77.09
2018-05-27T02:22:50.413Z,77.27
2018-05-27T02:25:53.673Z,77.75
2018-05-27T02:28:57.690Z,77.70
2018-05-27T02:32:01.053Z,79.37
2018-05-27T02:35:04.307Z,78.77
2018-05-27T02:38:07.594Z,78.36
2018-05-27T02:41:10.845Z,78.42
2018-05-27T02:44:14.112Z,77.80
2018-05-27T02:47:17.361Z,78.08
2018-05-27T02:50:21.390Z,78.21
2018-05-27T02:53:25.541Z,78.33
2018-05-27T02:56:28.994Z,78.71
2018-05-27T02:59:32.262Z,78.80
2018-05-27T03:02:35.521Z,78.16
2018-05-27T03:05:38.789Z,78.80
2018-05-27T03:08:42.841Z,78.81
2018-05-27T03:11:46.122Z,78.23
2018-05-27T03:14:49.409Z,78.71
2018-05-27T03:17:53.425Z,78.99
2018-05-27T03:20:57.449Z,78.68
2018-05-27T03:24:00.713Z,79.08
2018-05-27T03:27:04.743Z,78.99
2018-05-27T03:30:08.774Z,79.42
2018-05-27T03:33:12.028Z,78.68
2018-05-27T03:36:15.296Z,79.33
2018-05-27T03:39:18.550Z,78.79
2018-05-27T03:42:22.570Z,78.86
2018-05-27T03:45:25.829Z,79.00
2018-05-27T03:48:29.140Z,78.80
2018-05-27T03:51:33.170Z,79.04
2018-05-27T03:54:37.202Z,78.37
2018-05-27T03:57:40.451Z,78.75
2018-05-27T04:00:45.314Z,79.37
2018-05-27T04:07:48.196Z,78.65
2018-05-27T04:10:51.537Z,78.68
2018-05-27T04:13:55.553Z,78.38
2018-05-27T04:17:00.619Z,78.46
2018-05-27T04:20:03.892Z,78.22
2018-05-27T04:23:08.718Z,78.22
2018-05-27T04:26:12.737Z,77.60
2018-05-27T04:29:16.019Z,76.78
2018-05-27T04:32:20.046Z,76.04
2018-05-27T04:35:24.067Z,75.94
2018-05-27T04:38:27.346Z,75.75
2018-05-27T04:41:30.600Z,75.42
2018-05-27T04:44:33.864Z,75.32
2018-05-27T04:47:37.895Z,74.91
2018-05-27T04:50:41.163Z,74.37
2018-05-27T04:53:45.183Z,74.20
2018-05-27T04:56:48.451Z,74.43
2018-05-27T05:00:05.618Z,73.86
2018-05-27T05:03:09.532Z,73.47
2018-05-27T05:06:12.815Z,73.51
2018-05-27T05:09:16.061Z,73.41
2018-05-27T05:12:19.323Z,74.17
2018-05-27T05:15:22.598Z,73.72
2018-05-27T05:18:26.632Z,73.42
2018-05-27T05:21:29.888Z,73.08
2018-05-27T05:24:33.906Z,72.64
2018-05-27T05:27:37.178Z,71.97
2018-05-27T05:30:40.439Z,72.21
2018-05-27T05:33:43.698Z,70.84
2018-05-27T05:36:47.730Z,71.42
2018-05-27T05:39:51.006Z,71.31
2018-05-27T05:42:55.308Z,70.54
2018-05-27T05:45:58.570Z,68.61
2018-05-27T05:49:01.961Z,67.52
2018-05-27T05:52:05.318Z,65.58
2018-05-27T05:55:08.591Z,64.19
2018-05-27T05:58:11.957Z,61.06
2018-05-27T06:01:15.381Z,55.58
2018-05-27T06:04:18.646Z,58.17
2018-05-27T06:07:21.908Z,57.43
2018-05-27T06:10:25.149Z,60.54
2018-05-27T06:13:28.511Z,60.15
2018-05-27T06:16:32.662Z,59.10
2018-05-27T06:19:35.979Z,58.94
2018-05-27T06:22:40.311Z,56.17
2018-05-27T06:25:43.934Z,56.37
2018-05-27T06:28:47.505Z,52.87
2018-05-27T06:31:50.767Z,51.32
2018-05-27T06:34:54.890Z,49.15
2018-05-27T06:37:58.933Z,49.42
2018-05-27T06:41:02.306Z,50.45
2018-05-27T06:44:06.397Z,53.23
2018-05-27T06:47:09.659Z,50.12
2018-05-27T06:50:13.030Z,49.21
2018-05-27T06:53:16.297Z,46.36
2018-05-27T06:56:19.554Z,50.08
2018-05-27T06:59:23.594Z,49.75
2018-05-27T07:02:26.861Z,49.55
2018-05-27T07:05:30.894Z,53.78
2018-05-27T07:08:34.149Z,54.56
2018-05-27T07:11:37.464Z,52.96
2018-05-27T07:14:41.435Z,52.52
2018-05-27T07:17:45.455Z,53.71
2018-05-27T07:20:49.492Z,52.95
2018-05-27T07:23:52.773Z,49.22
2018-05-27T07:26:56.795Z,51.54
2018-05-27T07:30:00.052Z,51.46
2018-05-27T07:33:12.401Z,48.77
2018-05-27T07:36:15.659Z,44.62
2018-05-27T07:39:18.927Z,45.17
2018-05-27T07:42:22.205Z,43.46
2018-05-27T07:45:25.472Z,44.79
2018-05-27T07:48:29.498Z,48.15
2018-05-27T07:51:32.782Z,48.69
2018-05-27T07:54:36.808Z,47.55
2018-05-27T07:57:40.852Z,47.80
2018-05-27T08:00:44.113Z,48.55
2018-05-27T08:03:48.198Z,48.92
2018-05-27T08:06:51.468Z,48.81
2018-05-27T08:09:54.720Z,51.42
2018-05-27T08:12:58.754Z,57.07
2018-05-27T08:16:02.225Z,51.29
2018-05-27T08:19:05.430Z,51.26
2018-05-27T08:22:11.091Z,51.85
2018-05-27T08:25:15.119Z,47.29
2018-05-27T08:28:18.924Z,49.72
2018-05-27T08:31:22.271Z,45.32
2018-05-27T08:34:26.346Z,47.02
2018-05-27T08:37:29.740Z,45.53
2018-05-27T08:40:33.015Z,48.23
2018-05-27T08:43:37.054Z,45.20
2018-05-27T08:46:40.318Z,41.88
2018-05-27T08:49:43.633Z,44.59
2018-05-27T08:52:47.141Z,43.94
2018-05-27T08:55:50.433Z,45.34
2018-05-27T08:58:54.496Z,45.84
2018-05-27T09:01:58.159Z,48.49
2018-05-27T09:05:02.355Z,48.33
2018-05-27T09:08:05.782Z,50.98
2018-05-27T09:11:10.316Z,46.18
2018-05-27T09:14:13.601Z,45.38
2018-05-27T09:17:16.992Z,42.54
2018-05-27T09:20:20.237Z,42.80
2018-05-27T09:23:23.653Z,45.43
2018-05-27T09:26:27.106Z,45.58
2018-05-27T09:29:45.963Z,46.85
2018-05-27T09:33:10.844Z,43.39
2018-05-27T09:36:15.511Z,45.45
2018-05-27T09:39:18.833Z,44.94
2018-05-27T09:42:22.949Z,43.58
2018-05-27T09:45:26.251Z,42.80
2018-05-27T09:48:30.528Z,41.01
2018-05-27T09:51:34.553Z,42.00
2018-05-27T09:54:37.938Z,39.66
2018-05-27T09:57:42.057Z,40.63
2018-05-27T10:00:46.089Z,40.60
2018-05-27T10:03:49.474Z,38.49
2018-05-27T10:06:53.548Z,35.08
2018-05-27T10:09:57.178Z,36.35
2018-05-27T10:13:01.232Z,35.26
2018-05-27T10:16:04.504Z,34.97
2018-05-27T10:19:09.298Z,37.08
2018-05-27T10:22:12.578Z,37.34
2018-05-27T10:25:15.942Z,35.96
2018-05-27T10:28:19.228Z,35.12
2018-05-27T10:31:23.269Z,35.44
2018-05-27T10:34:26.870Z,36.99
2018-05-27T10:37:30.318Z,35.72
2018-05-27T10:40:33.699Z,37.33
2018-05-27T10:43:37.057Z,36.39
2018-05-27T10:46:40.474Z,33.60
2018-05-27T10:49:43.777Z,35.86
2018-05-27T10:52:48.198Z,37.11
2018-05-27T10:55:51.605Z,36.20
2018-05-27T10:58:55.141Z,36.96
2018-05-27T11:02:00.023Z,34.32
2018-05-27T11:05:03.601Z,34.98
2018-05-27T11:08:06.930Z,36.08
2018-05-27T11:11:10.392Z,36.28
2018-05-27T11:14:13.725Z,37.13
2018-05-27T11:17:17.019Z,40.31
2018-05-27T11:20:21.037Z,40.03
2018-05-27T11:23:24.617Z,38.07
2018-05-27T11:29:31.308Z,38.86
2018-05-27T11:32:34.559Z,39.43
2018-05-27T11:35:38.014Z,38.16
2018-05-27T11:38:41.369Z,38.42
2018-05-27T11:41:44.665Z,35.89
2018-05-27T11:44:48.270Z,37.15
2018-05-27T11:47:51.604Z,40.16
2018-05-27T11:50:54.873Z,41.05
2018-05-27T11:53:58.125Z,37.42
2018-05-27T11:57:02.165Z,39.00
2018-05-27T12:00:05.546Z,40.37
2018-05-27T12:03:09.579Z,39.92
2018-05-27T12:06:13.150Z,36.64
2018-05-27T12:09:17.252Z,36.69
2018-05-27T12:12:20.493Z,41.37
2018-05-27T12:15:23.763Z,42.81
2018-05-27T12:18:27.798Z,37.84
2018-05-27T12:21:31.054Z,37.89
2018-05-27T12:24:34.312Z,37.30
2018-05-27T12:27:37.896Z,36.30
2018-05-27T12:30:41.161Z,38.83
2018-05-27T12:33:44.617Z,43.89
2018-05-27T12:36:47.885Z,39.25
2018-05-27T12:39:52.088Z,38.84
2018-05-27T12:42:56.110Z,42.63
2018-05-27T12:46:00.163Z,38.02
2018-05-27T12:49:03.465Z,39.64
2018-05-27T12:52:06.799Z,41.05
2018-05-27T12:55:10.085Z,43.98
2018-05-27T12:58:13.368Z,40.30
2018-05-27T13:01:16.635Z,43.03
2018-05-27T13:04:19.908Z,43.13
2018-05-27T13:07:23.938Z,43.24
2018-05-27T13:10:27.187Z,44.50
2018-05-27T13:13:30.732Z,41.65
2018-05-27T13:16:34.875Z,43.94
2018-05-27T13:19:38.154Z,44.08
2018-05-27T13:22:42.178Z,47.50
2018-05-27T13:25:45.434Z,44.22
2018-05-27T13:28:48.720Z,43.66
2018-05-27T13:31:52.016Z,44.12
2018-05-27T13:34:55.267Z,45.42
2018-05-27T13:37:58.733Z,44.74
2018-05-27T13:41:02.772Z,42.95
2018-05-27T13:44:06.023Z,43.70
2018-05-27T13:47:09.305Z,44.77
2018-05-27T13:50:12.562Z,40.50
2018-05-27T13:53:15.879Z,43.28
2018-05-27T13:56:19.151Z,43.94
2018-05-27T13:59:23.203Z,44.67
2018-05-27T14:02:26.467Z,44.00
2018-05-27T14:05:30.509Z,44.28
2018-05-27T14:08:33.809Z,44.55
2018-05-27T14:11:37.087Z,42.54
2018-05-27T14:14:40.347Z,43.27
2018-05-27T14:17:43.633Z,42.21
2018-05-27T14:20:46.953Z,43.01
2018-05-27T14:23:50.927Z,44.31
2018-05-27T14:26:54.448Z,43.75
2018-05-27T14:29:58.541Z,42.86
2018-05-27T14:33:03.971Z,41.07
2018-05-27T14:36:07.388Z,42.66
2018-05-27T14:39:10.837Z,40.88
2018-05-27T14:42:14.131Z,41.40
2018-05-27T14:45:17.394Z,41.10
2018-05-27T14:48:20.668Z,41.36
2018-05-27T14:51:23.971Z,40.80
2018-05-27T14:54:27.238Z,41.06
2018-05-27T14:57:31.258Z,41.13
2018-05-27T15:00:37.263Z,40.22
2018-05-27T15:03:40.537Z,40.55
2018-05-27T15:06:43.849Z,41.57
2018-05-27T15:09:47.166Z,40.88
2018-05-27T15:12:50.424Z,40.53
2018-05-27T15:15:53.737Z,40.69
2018-05-27T15:18:57.005Z,41.30
2018-05-27T15:22:01.093Z,42.81
2018-05-27T15:25:04.398Z,41.74
2018-05-27T15:28:07.646Z,41.06
2018-05-27T15:31:10.905Z,40.10
2018-05-27T15:34:14.939Z,40.07
2018-05-27T15:37:18.256Z,40.03
2018-05-27T15:40:21.530Z,39.78
2018-05-27T15:43:24.832Z,40.22
2018-05-27T15:46:28.108Z,39.77
2018-05-27T15:49:32.140Z,40.20
2018-05-27T15:52:36.013Z,38.79
2018-05-27T15:55:39.333Z,39.24
2018-05-27T15:58:43.413Z,38.59
2018-05-27T16:01:46.668Z,38.79
2018-05-27T16:04:49.999Z,38.85
2018-05-27T16:07:53.261Z,39.60
2018-05-27T16:10:56.529Z,40.21
2018-05-27T16:14:00.545Z,38.77
2018-05-27T16:17:04.586Z,39.30
2018-05-27T16:20:08.822Z,39.70
2018-05-27T16:23:12.090Z,38.13
2018-05-27T16:26:16.105Z,39.10
2018-05-27T16:29:20.134Z,38.60
2018-05-27T16:32:23.445Z,38.66
2018-05-27T16:35:26.682Z,38.43
2018-05-27T16:38:30.008Z,38.75
2018-05-27T16:41:34.029Z,37.83
2018-05-27T16:44:38.071Z,37.89
2018-05-27T16:47:41.421Z,36.76
2018-05-27T16:50:44.794Z,35.78
2018-05-27T16:53:48.897Z,35.01
2018-05-27T16:56:52.148Z,34.44
2018-05-27T16:59:56.926Z,35.02
2018-05-27T17:03:00.244Z,36.49
2018-05-27T17:06:03.539Z,35.73
2018-05-27T17:09:07.665Z,37.77
2018-05-27T17:12:10.919Z,37.44
2018-05-27T17:15:14.213Z,38.61
2018-05-27T17:18:17.616Z,38.71
2018-05-27T17:21:20.889Z,39.15
2018-05-27T17:24:25.097Z,37.63
2018-05-27T17:27:29.148Z,38.65
2018-05-27T17:30:32.411Z,38.69
2018-05-27T17:33:36.442Z,38.77
2018-05-27T17:36:39.698Z,39.14
2018-05-27T17:39:42.966Z,39.43
2018-05-27T17:42:46.235Z,40.10
2018-05-27T17:45:49.509Z,41.67
2018-05-27T17:48:52.770Z,41.66
2018-05-27T17:51:56.036Z,41.99
2018-05-27T17:54:59.334Z,43.36
2018-05-27T17:58:02.601Z,43.44
2018-05-27T18:01:06.625Z,44.29
2018-05-27T18:04:10.644Z,44.19
2018-05-27T18:07:14.661Z,45.48
2018-05-27T18:10:17.922Z,44.50
2018-05-27T18:13:21.325Z,45.40
2018-05-27T18:16:24.586Z,45.74
2018-05-27T18:19:27.954Z,46.58
2018-05-27T18:22:31.976Z,46.87
2018-05-27T18:25:36.170Z,48.26
2018-05-27T18:28:39.418Z,49.38
2018-05-27T18:31:42.729Z,50.45
2018-05-27T18:34:45.960Z,51.39
2018-05-27T18:37:49.225Z,51.71
2018-05-27T18:40:52.484Z,52.79
2018-05-27T18:43:55.739Z,53.49
2018-05-27T18:46:58.983Z,54.54
2018-05-27T18:50:02.246Z,54.79
2018-05-27T18:53:06.393Z,56.27
2018-05-27T18:56:09.651Z,57.49
2018-05-27T18:59:12.911Z,57.63
2018-05-27T19:02:16.401Z,57.68
2018-05-27T19:05:19.694Z,57.90
2018-05-27T19:08:22.968Z,57.53
2018-05-27T19:11:27.137Z,58.23
2018-05-27T19:14:30.687Z,58.19
2018-05-27T19:17:34.901Z,58.42
2018-05-27T19:20:38.267Z,59.26
2018-05-27T19:23:42.346Z,59.97
2018-05-27T19:26:45.631Z,60.55
2018-05-27T19:29:49.031Z,60.94
2018-05-27T19:32:52.406Z,61.06
2018-05-27T19:35:56.498Z,62.22
2018-05-27T19:38:59.801Z,62.08
2018-05-27T19:42:03.064Z,61.93
2018-05-27T19:45:06.322Z,61.65
2018-05-27T19:48:10.342Z,62.83
2018-05-27T19:51:14.393Z,63.52
2018-05-27T19:54:17.661Z,63.54
2018-05-27T19:57:20.951Z,63.25
2018-05-27T20:00:24.987Z,63.38
2018-05-27T20:03:28.261Z,63.78
2018-05-27T20:06:32.279Z,64.39
2018-05-27T20:09:36.402Z,65.46
2018-05-27T20:12:39.674Z,65.02
2018-05-27T20:15:43.100Z,65.42
2018-05-27T20:18:47.217Z,65.75
2018-05-27T20:21:51.241Z,66.30
2018-05-27T20:24:54.528Z,67.06
2018-05-27T20:27:58.649Z,66.65
2018-05-27T20:31:01.904Z,67.16
2018-05-27T20:34:05.167Z,67.13
2018-05-27T20:37:08.444Z,67.44
2018-05-27T20:40:11.697Z,67.73
2018-05-27T20:43:15.722Z,68.19
2018-05-27T20:46:18.980Z,68.76
2018-05-27T20:49:22.261Z,69.14
2018-05-27T20:52:25.508Z,69.77
2018-05-27T20:55:28.803Z,69.97
2018-05-27T20:58:32.079Z,70.14
2018-05-27T21:01:35.435Z,71.20
2018-05-27T21:04:38.729Z,71.49
2018-05-27T21:07:41.991Z,71.27
2018-05-27T21:10:45.772Z,70.71
2018-05-27T21:13:50.666Z,70.27
2018-05-27T21:16:54.715Z,70.65
2018-05-27T21:19:59.333Z,70.82
2018-05-27T21:23:04.066Z,71.30
2018-05-27T21:26:08.574Z,71.32
2018-05-27T21:29:12.607Z,71.97
2018-05-27T21:32:15.855Z,72.08
2018-05-27T21:35:19.122Z,71.95
2018-05-27T21:38:22.383Z,73.08
2018-05-27T21:41:26.411Z,72.29
2018-05-27T21:44:29.661Z,72.37
2018-05-27T21:47:32.953Z,72.41
2018-05-27T21:50:37.225Z,72.61
2018-05-27T21:53:40.539Z,73.07
2018-05-27T21:56:43.818Z,73.71
2018-05-27T21:59:47.171Z,73.19
2018-05-27T22:02:50.426Z,72.75
2018-05-27T22:05:53.705Z,73.59
2018-05-27T22:08:57.724Z,73.98
2018-05-27T22:12:01.735Z,74.67
2018-05-27T22:15:05.522Z,74.42
2018-05-27T22:18:09.659Z,74.39
2018-05-27T22:21:13.679Z,74.32
2018-05-27T22:24:16.929Z,74.55
2018-05-27T22:27:20.182Z,74.49
2018-05-27T22:30:23.510Z,74.18
2018-05-27T22:33:26.768Z,74.76
2018-05-27T22:36:30.043Z,74.28
2018-05-27T22:39:34.078Z,74.76
2018-05-27T22:42:37.485Z,74.53
2018-05-27T22:45:40.757Z,74.49
2018-05-27T22:48:44.893Z,75.02
2018-05-27T22:51:48.156Z,75.08
2018-05-27T22:54:51.482Z,75.16
2018-05-27T22:57:55.504Z,74.91
2018-05-27T23:00:58.831Z,74.97
2018-05-27T23:04:02.075Z,75.39
2018-05-27T23:07:06.103Z,75.43
2018-05-27T23:10:10.124Z,75.56
2018-05-27T23:13:13.375Z,76.08
2018-05-27T23:16:16.632Z,76.11
2018-05-27T23:19:19.881Z,76.40
2018-05-27T23:22:23.196Z,77.00
2018-05-27T23:25:27.209Z,76.41
2018-05-27T23:28:31.235Z,76.32
2018-05-27T23:31:35.265Z,75.95
2018-05-27T23:34:38.556Z,76.51
2018-05-27T23:37:41.809Z,76.04
2018-05-27T23:40:45.069Z,76.96
2018-05-27T23:43:48.318Z,77.38
2018-05-27T23:46:52.456Z,77.23
2018-05-27T23:49:56.471Z,76.77
2018-05-27T23:52:59.878Z,77.28
2018-05-27T23:56:03.178Z,77.47
2018-05-27T23:59:06.428Z,77.29
